sensor_id;sensor_type;location;lat;lon;timestamp;P1;durP1;ratioP1;P2;durP2;ratioP2
4686;SDS011;2357;47.316;-1.348;2023-02-03T00:01:41;6.13;;;1.30;;
4686;SDS011;2357;47.316;-1.348;2023-02-03T00:04:07;6.70;;;1.10;;
4686;SDS011;2357;47.316;-1.348;2023-02-03T00:06:33;9.43;;;1.07;;
4686;SDS011;2357;47.316;-1.348;2023-02-03T00:08:58;3.53;;;1.27;;
4686;SDS011;2357;47.316;-1.348;2023-02-03T00:11:25;4.50;;;1.30;;
4686;SDS011;2357;47.316;-1.348;2023-02-03T00:13:54;6.83;;;1.20;;
4686;SDS011;2357;47.316;-1.348;2023-02-03T00:16:19;7.20;;;1.50;;
4686;SDS011;2357;47.316;-1.348;2023-02-03T00:18:45;5.70;;;1.07;;
4686;SDS011;2357;47.316;-1.348;2023-02-03T00:21:11;3.77;;;1.50;;
4686;SDS011;2357;47.316;-1.348;2023-02-03T00:23:38;8.77;;;1.13;;
4686;SDS011;2357;47.316;-1.348;2023-02-03T00:26:11;4.20;;;0.90;;
4686;SDS011;2357;47.316;-1.348;2023-02-03T00:28:38;6.00;;;1.27;;
4686;SDS011;2357;47.316;-1.348;2023-02-03T00:31:04;3.00;;;1.03;;
4686;SDS011;2357;47.316;-1.348;2023-02-03T00:33:30;9.80;;;1.20;;
4686;SDS011;2357;47.316;-1.348;2023-02-03T00:35:57;4.43;;;1.20;;
4686;SDS011;2357;47.316;-1.348;2023-02-03T00:38:28;2.80;;;1.00;;
4686;SDS011;2357;47.316;-1.348;2023-02-03T00:40:54;4.33;;;1.03;;
4686;SDS011;2357;47.316;-1.348;2023-02-03T00:43:20;3.97;;;0.97;;
4686;SDS011;2357;47.316;-1.348;2023-02-03T00:45:45;9.20;;;1.70;;
4686;SDS011;2357;47.316;-1.348;2023-02-03T00:48:11;3.00;;;1.10;;
4686;SDS011;2357;47.316;-1.348;2023-02-03T00:50:38;14.80;;;2.57;;
4686;SDS011;2357;47.316;-1.348;2023-02-03T00:53:04;3.73;;;0.93;;
4686;SDS011;2357;47.316;-1.348;2023-02-03T00:55:29;4.90;;;1.23;;
4686;SDS011;2357;47.316;-1.348;2023-02-03T00:57:55;3.80;;;1.10;;
4686;SDS011;2357;47.316;-1.348;2023-02-03T01:00:21;1.50;;;0.90;;
4686;SDS011;2357;47.316;-1.348;2023-02-03T01:02:46;3.73;;;1.27;;
4686;SDS011;2357;47.316;-1.348;2023-02-03T01:05:12;5.30;;;1.60;;
4686;SDS011;2357;47.316;-1.348;2023-02-03T01:07:38;7.30;;;1.10;;
4686;SDS011;2357;47.316;-1.348;2023-02-03T01:10:04;3.67;;;1.37;;
4686;SDS011;2357;47.316;-1.348;2023-02-03T01:12:31;2.70;;;1.20;;
4686;SDS011;2357;47.316;-1.348;2023-02-03T01:14:57;2.60;;;1.93;;
4686;SDS011;2357;47.316;-1.348;2023-02-03T01:17:23;6.13;;;1.00;;
4686;SDS011;2357;47.316;-1.348;2023-02-03T01:19:49;3.67;;;1.00;;
4686;SDS011;2357;47.316;-1.348;2023-02-03T01:22:15;4.20;;;1.20;;
4686;SDS011;2357;47.316;-1.348;2023-02-03T01:24:41;3.17;;;0.97;;
4686;SDS011;2357;47.316;-1.348;2023-02-03T01:27:07;2.47;;;0.80;;
4686;SDS011;2357;47.316;-1.348;2023-02-03T01:29:32;5.63;;;1.50;;
4686;SDS011;2357;47.316;-1.348;2023-02-03T01:31:58;4.70;;;1.10;;
4686;SDS011;2357;47.316;-1.348;2023-02-03T01:34:24;1.23;;;0.90;;
4686;SDS011;2357;47.316;-1.348;2023-02-03T01:36:50;8.20;;;1.30;;
4686;SDS011;2357;47.316;-1.348;2023-02-03T01:39:16;3.40;;;1.13;;
4686;SDS011;2357;47.316;-1.348;2023-02-03T01:41:42;4.57;;;1.13;;
4686;SDS011;2357;47.316;-1.348;2023-02-03T01:47:13;3.97;;;1.27;;
4686;SDS011;2357;47.316;-1.348;2023-02-03T01:49:44;2.10;;;0.77;;
4686;SDS011;2357;47.316;-1.348;2023-02-03T01:52:14;13.40;;;1.00;;
4686;SDS011;2357;47.316;-1.348;2023-02-03T01:54:41;2.33;;;0.77;;
4686;SDS011;2357;47.316;-1.348;2023-02-03T01:57:13;1.03;;;0.93;;
4686;SDS011;2357;47.316;-1.348;2023-02-03T01:59:43;3.13;;;0.90;;
4686;SDS011;2357;47.316;-1.348;2023-02-03T02:02:11;5.70;;;1.37;;
4686;SDS011;2357;47.316;-1.348;2023-02-03T02:04:52;3.40;;;1.17;;
4686;SDS011;2357;47.316;-1.348;2023-02-03T02:07:39;5.43;;;0.90;;
4686;SDS011;2357;47.316;-1.348;2023-02-03T02:10:08;3.43;;;0.80;;
4686;SDS011;2357;47.316;-1.348;2023-02-03T02:12:34;5.80;;;1.40;;
4686;SDS011;2357;47.316;-1.348;2023-02-03T02:14:59;5.07;;;1.23;;
4686;SDS011;2357;47.316;-1.348;2023-02-03T02:25:44;1.93;;;0.80;;
4686;SDS011;2357;47.316;-1.348;2023-02-03T02:33:58;2.50;;;1.23;;
4686;SDS011;2357;47.316;-1.348;2023-02-03T02:36:40;2.90;;;1.10;;
4686;SDS011;2357;47.316;-1.348;2023-02-03T02:39:36;4.37;;;1.37;;
4686;SDS011;2357;47.316;-1.348;2023-02-03T02:45:16;1.07;;;0.90;;
4686;SDS011;2357;47.316;-1.348;2023-02-03T02:47:50;7.90;;;1.00;;
4686;SDS011;2357;47.316;-1.348;2023-02-03T02:50:23;3.00;;;1.20;;
4686;SDS011;2357;47.316;-1.348;2023-02-03T02:52:52;2.10;;;0.83;;
4686;SDS011;2357;47.316;-1.348;2023-02-03T02:55:20;2.53;;;1.03;;
4686;SDS011;2357;47.316;-1.348;2023-02-03T02:57:52;4.43;;;1.03;;
4686;SDS011;2357;47.316;-1.348;2023-02-03T03:00:21;1.20;;;1.10;;
4686;SDS011;2357;47.316;-1.348;2023-02-03T03:02:47;2.50;;;0.80;;
4686;SDS011;2357;47.316;-1.348;2023-02-03T03:05:13;3.50;;;0.90;;
4686;SDS011;2357;47.316;-1.348;2023-02-03T03:07:44;8.33;;;0.93;;
4686;SDS011;2357;47.316;-1.348;2023-02-03T03:10:15;3.17;;;0.80;;
4686;SDS011;2357;47.316;-1.348;2023-02-03T03:12:48;1.47;;;0.90;;
4686;SDS011;2357;47.316;-1.348;2023-02-03T03:15:21;0.77;;;0.77;;
4686;SDS011;2357;47.316;-1.348;2023-02-03T03:17:52;3.80;;;0.90;;
4686;SDS011;2357;47.316;-1.348;2023-02-03T03:20:28;5.23;;;1.37;;
4686;SDS011;2357;47.316;-1.348;2023-02-03T03:23:02;4.63;;;1.00;;
4686;SDS011;2357;47.316;-1.348;2023-02-03T03:25:42;4.03;;;1.10;;
4686;SDS011;2357;47.316;-1.348;2023-02-03T03:28:12;1.77;;;1.13;;
4686;SDS011;2357;47.316;-1.348;2023-02-03T03:30:41;3.80;;;1.30;;
4686;SDS011;2357;47.316;-1.348;2023-02-03T03:33:07;1.63;;;1.00;;
4686;SDS011;2357;47.316;-1.348;2023-02-03T03:35:39;1.63;;;0.90;;
4686;SDS011;2357;47.316;-1.348;2023-02-03T03:38:11;1.30;;;0.70;;
4686;SDS011;2357;47.316;-1.348;2023-02-03T03:41:01;5.80;;;1.23;;
4686;SDS011;2357;47.316;-1.348;2023-02-03T03:43:47;2.17;;;0.90;;
4686;SDS011;2357;47.316;-1.348;2023-02-03T03:46:22;3.13;;;0.70;;
4686;SDS011;2357;47.316;-1.348;2023-02-03T03:49:01;2.87;;;1.77;;
4686;SDS011;2357;47.316;-1.348;2023-02-03T03:51:30;3.53;;;0.97;;
4686;SDS011;2357;47.316;-1.348;2023-02-03T03:54:06;3.67;;;1.20;;
4686;SDS011;2357;47.316;-1.348;2023-02-03T03:56:47;2.10;;;0.90;;
4686;SDS011;2357;47.316;-1.348;2023-02-03T03:59:15;3.60;;;1.37;;
4686;SDS011;2357;47.316;-1.348;2023-02-03T04:01:43;5.30;;;1.13;;
4686;SDS011;2357;47.316;-1.348;2023-02-03T04:04:09;0.80;;;0.80;;
4686;SDS011;2357;47.316;-1.348;2023-02-03T04:06:37;4.53;;;1.23;;
4686;SDS011;2357;47.316;-1.348;2023-02-03T04:09:03;1.80;;;0.83;;
4686;SDS011;2357;47.316;-1.348;2023-02-03T04:11:29;2.93;;;0.80;;
4686;SDS011;2357;47.316;-1.348;2023-02-03T04:14:14;2.20;;;0.70;;
4686;SDS011;2357;47.316;-1.348;2023-02-03T04:16:39;4.40;;;0.90;;
4686;SDS011;2357;47.316;-1.348;2023-02-03T04:19:05;0.73;;;0.57;;
4686;SDS011;2357;47.316;-1.348;2023-02-03T04:21:31;4.03;;;0.80;;
4686;SDS011;2357;47.316;-1.348;2023-02-03T04:23:56;2.57;;;0.80;;
4686;SDS011;2357;47.316;-1.348;2023-02-03T04:26:22;1.73;;;0.93;;
4686;SDS011;2357;47.316;-1.348;2023-02-03T04:28:48;1.07;;;0.70;;
4686;SDS011;2357;47.316;-1.348;2023-02-03T04:31:15;0.67;;;0.63;;
4686;SDS011;2357;47.316;-1.348;2023-02-03T04:33:40;1.70;;;1.27;;
4686;SDS011;2357;47.316;-1.348;2023-02-03T04:36:06;7.90;;;0.77;;
4686;SDS011;2357;47.316;-1.348;2023-02-03T04:38:32;0.80;;;0.80;;
4686;SDS011;2357;47.316;-1.348;2023-02-03T04:40:58;1.77;;;0.63;;
4686;SDS011;2357;47.316;-1.348;2023-02-03T04:43:24;1.50;;;0.80;;
4686;SDS011;2357;47.316;-1.348;2023-02-03T04:45:50;1.93;;;0.60;;
4686;SDS011;2357;47.316;-1.348;2023-02-03T04:48:15;0.80;;;0.80;;
4686;SDS011;2357;47.316;-1.348;2023-02-03T04:50:41;4.87;;;0.90;;
4686;SDS011;2357;47.316;-1.348;2023-02-03T04:53:06;0.90;;;0.60;;
4686;SDS011;2357;47.316;-1.348;2023-02-03T04:55:32;1.10;;;0.90;;
4686;SDS011;2357;47.316;-1.348;2023-02-03T04:57:58;9.60;;;0.80;;
4686;SDS011;2357;47.316;-1.348;2023-02-03T05:00:25;0.80;;;0.60;;
4686;SDS011;2357;47.316;-1.348;2023-02-03T05:02:51;2.60;;;0.90;;
4686;SDS011;2357;47.316;-1.348;2023-02-03T05:05:17;1.27;;;0.80;;
4686;SDS011;2357;47.316;-1.348;2023-02-03T05:07:43;1.67;;;0.70;;
4686;SDS011;2357;47.316;-1.348;2023-02-03T05:10:09;1.43;;;0.70;;
4686;SDS011;2357;47.316;-1.348;2023-02-03T05:12:35;2.90;;;0.90;;
4686;SDS011;2357;47.316;-1.348;2023-02-03T05:15:00;5.10;;;1.10;;
4686;SDS011;2357;47.316;-1.348;2023-02-03T05:17:26;1.83;;;0.70;;
4686;SDS011;2357;47.316;-1.348;2023-02-03T05:19:52;0.70;;;0.60;;
4686;SDS011;2357;47.316;-1.348;2023-02-03T05:22:17;1.37;;;0.70;;
4686;SDS011;2357;47.316;-1.348;2023-02-03T05:24:43;2.00;;;0.80;;
4686;SDS011;2357;47.316;-1.348;2023-02-03T05:27:08;6.40;;;0.83;;
4686;SDS011;2357;47.316;-1.348;2023-02-03T05:29:34;0.90;;;0.90;;
4686;SDS011;2357;47.316;-1.348;2023-02-03T05:32:00;0.80;;;0.70;;
4686;SDS011;2357;47.316;-1.348;2023-02-03T05:34:25;1.80;;;1.33;;
4686;SDS011;2357;47.316;-1.348;2023-02-03T05:36:51;4.77;;;1.93;;
4686;SDS011;2357;47.316;-1.348;2023-02-03T05:39:17;2.93;;;0.80;;
4686;SDS011;2357;47.316;-1.348;2023-02-03T05:41:42;5.60;;;0.90;;
4686;SDS011;2357;47.316;-1.348;2023-02-03T05:44:17;1.57;;;1.07;;
4686;SDS011;2357;47.316;-1.348;2023-02-03T05:46:44;8.30;;;1.03;;
4686;SDS011;2357;47.316;-1.348;2023-02-03T05:49:10;1.57;;;0.90;;
4686;SDS011;2357;47.316;-1.348;2023-02-03T05:51:36;2.00;;;0.90;;
4686;SDS011;2357;47.316;-1.348;2023-02-03T05:54:03;2.47;;;1.27;;
4686;SDS011;2357;47.316;-1.348;2023-02-03T05:56:29;1.80;;;0.90;;
4686;SDS011;2357;47.316;-1.348;2023-02-03T05:58:55;3.73;;;0.90;;
4686;SDS011;2357;47.316;-1.348;2023-02-03T06:01:20;3.70;;;0.80;;
4686;SDS011;2357;47.316;-1.348;2023-02-03T06:03:46;1.93;;;0.87;;
4686;SDS011;2357;47.316;-1.348;2023-02-03T06:06:12;5.83;;;0.90;;
4686;SDS011;2357;47.316;-1.348;2023-02-03T06:08:38;1.37;;;1.00;;
4686;SDS011;2357;47.316;-1.348;2023-02-03T06:11:04;4.40;;;1.77;;
4686;SDS011;2357;47.316;-1.348;2023-02-03T06:13:29;5.03;;;1.17;;
4686;SDS011;2357;47.316;-1.348;2023-02-03T06:15:55;14.57;;;1.53;;
4686;SDS011;2357;47.316;-1.348;2023-02-03T06:18:21;5.03;;;1.20;;
4686;SDS011;2357;47.316;-1.348;2023-02-03T06:20:47;8.60;;;1.07;;
4686;SDS011;2357;47.316;-1.348;2023-02-03T06:23:13;2.60;;;1.10;;
4686;SDS011;2357;47.316;-1.348;2023-02-03T06:25:41;5.37;;;1.03;;
4686;SDS011;2357;47.316;-1.348;2023-02-03T06:28:07;2.20;;;0.93;;
4686;SDS011;2357;47.316;-1.348;2023-02-03T06:30:32;5.23;;;1.20;;
4686;SDS011;2357;47.316;-1.348;2023-02-03T06:32:58;5.40;;;1.30;;
4686;SDS011;2357;47.316;-1.348;2023-02-03T06:35:24;3.20;;;0.90;;
4686;SDS011;2357;47.316;-1.348;2023-02-03T06:37:49;4.20;;;1.30;;
4686;SDS011;2357;47.316;-1.348;2023-02-03T06:40:15;7.33;;;1.20;;
4686;SDS011;2357;47.316;-1.348;2023-02-03T06:42:43;1.40;;;1.00;;
4686;SDS011;2357;47.316;-1.348;2023-02-03T06:45:10;0.90;;;0.90;;
4686;SDS011;2357;47.316;-1.348;2023-02-03T06:47:38;4.40;;;1.30;;
4686;SDS011;2357;47.316;-1.348;2023-02-03T06:50:05;2.00;;;0.70;;
4686;SDS011;2357;47.316;-1.348;2023-02-03T06:52:30;4.73;;;1.10;;
4686;SDS011;2357;47.316;-1.348;2023-02-03T06:54:56;10.43;;;0.80;;
4686;SDS011;2357;47.316;-1.348;2023-02-03T06:57:22;2.10;;;1.47;;
4686;SDS011;2357;47.316;-1.348;2023-02-03T06:59:47;3.20;;;2.90;;
4686;SDS011;2357;47.316;-1.348;2023-02-03T07:02:13;8.80;;;6.40;;
4686;SDS011;2357;47.316;-1.348;2023-02-03T07:04:38;8.90;;;6.67;;
4686;SDS011;2357;47.316;-1.348;2023-02-03T07:07:04;11.90;;;4.67;;
4686;SDS011;2357;47.316;-1.348;2023-02-03T07:09:30;1.67;;;1.33;;
4686;SDS011;2357;47.316;-1.348;2023-02-03T07:11:56;2.03;;;1.47;;
4686;SDS011;2357;47.316;-1.348;2023-02-03T07:14:21;1.70;;;1.00;;
4686;SDS011;2357;47.316;-1.348;2023-02-03T07:16:47;1.17;;;0.80;;
4686;SDS011;2357;47.316;-1.348;2023-02-03T07:19:12;2.00;;;1.00;;
4686;SDS011;2357;47.316;-1.348;2023-02-03T07:21:38;2.10;;;1.63;;
4686;SDS011;2357;47.316;-1.348;2023-02-03T07:24:04;2.07;;;1.90;;
4686;SDS011;2357;47.316;-1.348;2023-02-03T07:26:29;4.13;;;1.70;;
4686;SDS011;2357;47.316;-1.348;2023-02-03T07:28:55;4.70;;;2.40;;
4686;SDS011;2357;47.316;-1.348;2023-02-03T07:31:23;1.30;;;1.20;;
4686;SDS011;2357;47.316;-1.348;2023-02-03T07:33:49;1.80;;;1.50;;
4686;SDS011;2357;47.316;-1.348;2023-02-03T07:36:15;2.73;;;1.47;;
4686;SDS011;2357;47.316;-1.348;2023-02-03T07:38:40;5.00;;;0.80;;
4686;SDS011;2357;47.316;-1.348;2023-02-03T07:41:06;2.10;;;0.80;;
4686;SDS011;2357;47.316;-1.348;2023-02-03T07:43:32;0.70;;;0.70;;
4686;SDS011;2357;47.316;-1.348;2023-02-03T07:45:58;4.10;;;0.80;;
4686;SDS011;2357;47.316;-1.348;2023-02-03T07:48:23;6.10;;;0.90;;
4686;SDS011;2357;47.316;-1.348;2023-02-03T07:50:49;2.53;;;0.80;;
4686;SDS011;2357;47.316;-1.348;2023-02-03T07:53:16;2.77;;;1.40;;
4686;SDS011;2357;47.316;-1.348;2023-02-03T07:55:42;4.20;;;1.50;;
4686;SDS011;2357;47.316;-1.348;2023-02-03T07:58:08;0.83;;;0.80;;
4686;SDS011;2357;47.316;-1.348;2023-02-03T08:00:34;2.50;;;1.40;;
4686;SDS011;2357;47.316;-1.348;2023-02-03T08:02:59;3.17;;;2.27;;
4686;SDS011;2357;47.316;-1.348;2023-02-03T08:05:25;7.30;;;1.70;;
4686;SDS011;2357;47.316;-1.348;2023-02-03T08:07:51;1.60;;;0.93;;
4686;SDS011;2357;47.316;-1.348;2023-02-03T08:10:17;0.60;;;0.60;;
4686;SDS011;2357;47.316;-1.348;2023-02-03T08:12:43;0.97;;;0.60;;
4686;SDS011;2357;47.316;-1.348;2023-02-03T08:15:10;0.50;;;0.50;;
4686;SDS011;2357;47.316;-1.348;2023-02-03T08:17:36;1.07;;;0.90;;
4686;SDS011;2357;47.316;-1.348;2023-02-03T08:20:04;3.07;;;0.70;;
4686;SDS011;2357;47.316;-1.348;2023-02-03T08:22:31;1.33;;;0.70;;
4686;SDS011;2357;47.316;-1.348;2023-02-03T08:24:56;2.80;;;0.70;;
4686;SDS011;2357;47.316;-1.348;2023-02-03T08:27:22;1.17;;;1.00;;
4686;SDS011;2357;47.316;-1.348;2023-02-03T08:29:48;2.47;;;0.90;;
4686;SDS011;2357;47.316;-1.348;2023-02-03T08:32:15;2.30;;;0.80;;
4686;SDS011;2357;47.316;-1.348;2023-02-03T08:34:42;2.57;;;0.90;;
4686;SDS011;2357;47.316;-1.348;2023-02-03T08:37:09;3.37;;;1.30;;
4686;SDS011;2357;47.316;-1.348;2023-02-03T08:39:36;1.50;;;1.40;;
4686;SDS011;2357;47.316;-1.348;2023-02-03T08:42:02;2.80;;;1.50;;
4686;SDS011;2357;47.316;-1.348;2023-02-03T08:44:31;4.53;;;0.70;;
4686;SDS011;2357;47.316;-1.348;2023-02-03T08:46:57;2.30;;;1.33;;
4686;SDS011;2357;47.316;-1.348;2023-02-03T08:49:24;3.50;;;1.57;;
4686;SDS011;2357;47.316;-1.348;2023-02-03T08:51:51;2.20;;;1.07;;
4686;SDS011;2357;47.316;-1.348;2023-02-03T08:54:17;1.83;;;1.07;;
4686;SDS011;2357;47.316;-1.348;2023-02-03T08:56:43;2.67;;;1.50;;
4686;SDS011;2357;47.316;-1.348;2023-02-03T08:59:10;4.70;;;1.23;;
4686;SDS011;2357;47.316;-1.348;2023-02-03T09:01:36;1.47;;;1.07;;
4686;SDS011;2357;47.316;-1.348;2023-02-03T09:04:04;5.43;;;0.87;;
4686;SDS011;2357;47.316;-1.348;2023-02-03T09:06:32;4.60;;;1.13;;
4686;SDS011;2357;47.316;-1.348;2023-02-03T09:08:59;2.90;;;2.30;;
4686;SDS011;2357;47.316;-1.348;2023-02-03T09:11:24;2.57;;;0.97;;
4686;SDS011;2357;47.316;-1.348;2023-02-03T09:13:50;0.60;;;0.60;;
4686;SDS011;2357;47.316;-1.348;2023-02-03T09:16:16;5.80;;;0.90;;
4686;SDS011;2357;47.316;-1.348;2023-02-03T09:18:44;2.00;;;1.40;;
4686;SDS011;2357;47.316;-1.348;2023-02-03T09:21:10;0.80;;;0.80;;
4686;SDS011;2357;47.316;-1.348;2023-02-03T09:23:37;9.53;;;1.27;;
4686;SDS011;2357;47.316;-1.348;2023-02-03T09:26:06;1.53;;;1.07;;
4686;SDS011;2357;47.316;-1.348;2023-02-03T09:28:33;1.80;;;1.67;;
4686;SDS011;2357;47.316;-1.348;2023-02-03T09:31:00;2.50;;;0.80;;
4686;SDS011;2357;47.316;-1.348;2023-02-03T09:33:30;3.17;;;1.60;;
4686;SDS011;2357;47.316;-1.348;2023-02-03T09:35:56;5.03;;;1.20;;
4686;SDS011;2357;47.316;-1.348;2023-02-03T09:38:22;1.93;;;0.77;;
4686;SDS011;2357;47.316;-1.348;2023-02-03T09:40:50;1.30;;;0.87;;
4686;SDS011;2357;47.316;-1.348;2023-02-03T09:46:26;1.03;;;0.93;;
4686;SDS011;2357;47.316;-1.348;2023-02-03T09:48:57;2.07;;;0.70;;
4686;SDS011;2357;47.316;-1.348;2023-02-03T09:51:29;1.33;;;0.60;;
4686;SDS011;2357;47.316;-1.348;2023-02-03T09:54:34;1.37;;;0.70;;
4686;SDS011;2357;47.316;-1.348;2023-02-03T09:57:20;3.60;;;1.43;;
4686;SDS011;2357;47.316;-1.348;2023-02-03T09:59:52;0.70;;;0.63;;
4686;SDS011;2357;47.316;-1.348;2023-02-03T10:15:39;3.03;;;0.80;;
4686;SDS011;2357;47.316;-1.348;2023-02-03T10:18:24;0.77;;;0.50;;
4686;SDS011;2357;47.316;-1.348;2023-02-03T10:21:15;2.00;;;1.73;;
4686;SDS011;2357;47.316;-1.348;2023-02-03T10:23:45;0.73;;;0.60;;
4686;SDS011;2357;47.316;-1.348;2023-02-03T10:26:16;0.60;;;0.50;;
4686;SDS011;2357;47.316;-1.348;2023-02-03T10:28:55;0.47;;;0.47;;
4686;SDS011;2357;47.316;-1.348;2023-02-03T10:31:23;5.60;;;0.90;;
4686;SDS011;2357;47.316;-1.348;2023-02-03T10:34:13;3.50;;;0.40;;
4686;SDS011;2357;47.316;-1.348;2023-02-03T10:36:45;2.67;;;0.70;;
4686;SDS011;2357;47.316;-1.348;2023-02-03T10:39:18;0.40;;;0.40;;
4686;SDS011;2357;47.316;-1.348;2023-02-03T10:41:53;1.30;;;0.70;;
4686;SDS011;2357;47.316;-1.348;2023-02-03T10:44:19;2.40;;;0.63;;
4686;SDS011;2357;47.316;-1.348;2023-02-03T10:46:50;0.73;;;0.70;;
4686;SDS011;2357;47.316;-1.348;2023-02-03T10:49:16;3.77;;;0.70;;
4686;SDS011;2357;47.316;-1.348;2023-02-03T10:51:47;0.57;;;0.57;;
4686;SDS011;2357;47.316;-1.348;2023-02-03T10:54:24;1.67;;;0.60;;
4686;SDS011;2357;47.316;-1.348;2023-02-03T10:57:02;0.70;;;0.60;;
4686;SDS011;2357;47.316;-1.348;2023-02-03T10:59:32;1.90;;;0.70;;
4686;SDS011;2357;47.316;-1.348;2023-02-03T11:01:59;0.60;;;0.57;;
4686;SDS011;2357;47.316;-1.348;2023-02-03T11:04:32;0.67;;;0.67;;
4686;SDS011;2357;47.316;-1.348;2023-02-03T11:06:59;1.30;;;0.60;;
4686;SDS011;2357;47.316;-1.348;2023-02-03T11:09:33;3.60;;;0.50;;
4686;SDS011;2357;47.316;-1.348;2023-02-03T11:14:49;1.40;;;0.70;;
4686;SDS011;2357;47.316;-1.348;2023-02-03T11:17:17;1.00;;;0.50;;
4686;SDS011;2357;47.316;-1.348;2023-02-03T11:19:49;0.67;;;0.57;;
4686;SDS011;2357;47.316;-1.348;2023-02-03T11:22:30;0.97;;;0.60;;
4686;SDS011;2357;47.316;-1.348;2023-02-03T11:25:00;1.40;;;0.60;;
4686;SDS011;2357;47.316;-1.348;2023-02-03T11:27:28;0.70;;;0.50;;
4686;SDS011;2357;47.316;-1.348;2023-02-03T11:32:53;8.90;;;1.60;;
4686;SDS011;2357;47.316;-1.348;2023-02-03T11:35:24;1.27;;;0.50;;
4686;SDS011;2357;47.316;-1.348;2023-02-03T11:37:51;2.00;;;0.60;;
4686;SDS011;2357;47.316;-1.348;2023-02-03T11:42:57;0.50;;;0.50;;
4686;SDS011;2357;47.316;-1.348;2023-02-03T11:45:38;0.93;;;0.50;;
4686;SDS011;2357;47.316;-1.348;2023-02-03T11:58:40;0.40;;;0.40;;
4686;SDS011;2357;47.316;-1.348;2023-02-03T12:34:02;0.97;;;0.90;;
4686;SDS011;2357;47.316;-1.348;2023-02-03T12:36:40;0.30;;;0.30;;
4686;SDS011;2357;47.316;-1.348;2023-02-03T12:41:45;0.43;;;0.43;;
4686;SDS011;2357;47.316;-1.348;2023-02-03T12:44:25;0.50;;;0.50;;
4686;SDS011;2357;47.316;-1.348;2023-02-03T12:49:46;0.40;;;0.40;;
4686;SDS011;2357;47.316;-1.348;2023-02-03T12:52:44;1.17;;;0.50;;
4686;SDS011;2357;47.316;-1.348;2023-02-03T12:58:05;0.90;;;0.80;;
4686;SDS011;2357;47.316;-1.348;2023-02-03T13:05:44;1.73;;;1.30;;
4686;SDS011;2357;47.316;-1.348;2023-02-03T13:08:15;2.90;;;0.93;;
4686;SDS011;2357;47.316;-1.348;2023-02-03T13:11:01;0.80;;;0.70;;
4686;SDS011;2357;47.316;-1.348;2023-02-03T13:13:34;0.50;;;0.50;;
4686;SDS011;2357;47.316;-1.348;2023-02-03T13:16:05;0.50;;;0.50;;
4686;SDS011;2357;47.316;-1.348;2023-02-03T13:18:36;0.60;;;0.57;;
4686;SDS011;2357;47.316;-1.348;2023-02-03T13:21:08;2.27;;;0.73;;
4686;SDS011;2357;47.316;-1.348;2023-02-03T13:23:36;2.13;;;0.50;;
4686;SDS011;2357;47.316;-1.348;2023-02-03T13:42:43;0.40;;;0.40;;
4686;SDS011;2357;47.316;-1.348;2023-02-03T13:45:21;0.50;;;0.50;;
4686;SDS011;2357;47.316;-1.348;2023-02-03T13:47:51;13.53;;;2.20;;
4686;SDS011;2357;47.316;-1.348;2023-02-03T13:50:21;0.40;;;0.40;;
4686;SDS011;2357;47.316;-1.348;2023-02-03T13:52:58;0.43;;;0.43;;
4686;SDS011;2357;47.316;-1.348;2023-02-03T13:55:32;2.30;;;0.60;;
4686;SDS011;2357;47.316;-1.348;2023-02-03T13:57:58;0.70;;;0.40;;
4686;SDS011;2357;47.316;-1.348;2023-02-03T14:05:53;0.40;;;0.40;;
4686;SDS011;2357;47.316;-1.348;2023-02-03T14:16:36;0.40;;;0.40;;
4686;SDS011;2357;47.316;-1.348;2023-02-03T14:19:03;0.70;;;0.40;;
4686;SDS011;2357;47.316;-1.348;2023-02-03T14:21:36;0.43;;;0.43;;
4686;SDS011;2357;47.316;-1.348;2023-02-03T14:24:09;0.80;;;0.40;;
4686;SDS011;2357;47.316;-1.348;2023-02-03T14:26:39;1.40;;;0.60;;
4686;SDS011;2357;47.316;-1.348;2023-02-03T14:29:09;0.50;;;0.50;;
4686;SDS011;2357;47.316;-1.348;2023-02-03T14:32:02;0.70;;;0.50;;
4686;SDS011;2357;47.316;-1.348;2023-02-03T14:34:39;0.50;;;0.50;;
4686;SDS011;2357;47.316;-1.348;2023-02-03T14:48:40;0.50;;;0.50;;
4686;SDS011;2357;47.316;-1.348;2023-02-03T15:05:37;0.83;;;0.53;;
4686;SDS011;2357;47.316;-1.348;2023-02-03T15:14:27;0.50;;;0.50;;
4686;SDS011;2357;47.316;-1.348;2023-02-03T15:16:58;0.50;;;0.50;;
4686;SDS011;2357;47.316;-1.348;2023-02-03T15:19:36;0.40;;;0.40;;
4686;SDS011;2357;47.316;-1.348;2023-02-03T15:24:42;2.20;;;0.50;;
4686;SDS011;2357;47.316;-1.348;2023-02-03T15:27:18;0.50;;;0.50;;
4686;SDS011;2357;47.316;-1.348;2023-02-03T15:29:46;0.40;;;0.40;;
4686;SDS011;2357;47.316;-1.348;2023-02-03T15:32:13;2.00;;;0.80;;
4686;SDS011;2357;47.316;-1.348;2023-02-03T15:34:48;0.50;;;0.47;;
4686;SDS011;2357;47.316;-1.348;2023-02-03T15:37:16;0.60;;;0.60;;
4686;SDS011;2357;47.316;-1.348;2023-02-03T15:39:57;1.13;;;0.70;;
4686;SDS011;2357;47.316;-1.348;2023-02-03T15:42:37;0.50;;;0.50;;
4686;SDS011;2357;47.316;-1.348;2023-02-03T15:47:53;0.53;;;0.53;;
4686;SDS011;2357;47.316;-1.348;2023-02-03T15:50:39;0.50;;;0.50;;
4686;SDS011;2357;47.316;-1.348;2023-02-03T15:53:19;1.20;;;0.70;;
4686;SDS011;2357;47.316;-1.348;2023-02-03T15:55:51;2.03;;;0.60;;
4686;SDS011;2357;47.316;-1.348;2023-02-03T15:58:27;0.50;;;0.50;;
4686;SDS011;2357;47.316;-1.348;2023-02-03T16:00:57;1.80;;;0.70;;
4686;SDS011;2357;47.316;-1.348;2023-02-03T16:05:54;0.80;;;0.80;;
4686;SDS011;2357;47.316;-1.348;2023-02-03T16:10:53;1.20;;;0.70;;
4686;SDS011;2357;47.316;-1.348;2023-02-03T16:15:59;0.90;;;0.90;;
4686;SDS011;2357;47.316;-1.348;2023-02-03T16:18:37;2.50;;;0.80;;
4686;SDS011;2357;47.316;-1.348;2023-02-03T16:21:04;0.67;;;0.67;;
4686;SDS011;2357;47.316;-1.348;2023-02-03T16:23:30;1.03;;;0.93;;
4686;SDS011;2357;47.316;-1.348;2023-02-03T16:26:06;0.80;;;0.70;;
4686;SDS011;2357;47.316;-1.348;2023-02-03T16:31:47;1.17;;;1.07;;
4686;SDS011;2357;47.316;-1.348;2023-02-03T16:34:32;3.70;;;1.10;;
4686;SDS011;2357;47.316;-1.348;2023-02-03T16:37:20;7.80;;;1.10;;
4686;SDS011;2357;47.316;-1.348;2023-02-03T16:40:07;4.33;;;0.90;;
4686;SDS011;2357;47.316;-1.348;2023-02-03T16:42:52;3.53;;;0.80;;
4686;SDS011;2357;47.316;-1.348;2023-02-03T16:45:36;1.73;;;0.90;;
4686;SDS011;2357;47.316;-1.348;2023-02-03T16:48:20;7.23;;;0.90;;
4686;SDS011;2357;47.316;-1.348;2023-02-03T16:51:08;1.23;;;0.90;;
4686;SDS011;2357;47.316;-1.348;2023-02-03T16:53:40;2.23;;;0.70;;
4686;SDS011;2357;47.316;-1.348;2023-02-03T16:56:09;0.93;;;0.80;;
4686;SDS011;2357;47.316;-1.348;2023-02-03T16:58:36;3.20;;;1.10;;
4686;SDS011;2357;47.316;-1.348;2023-02-03T17:01:02;1.07;;;1.00;;
4686;SDS011;2357;47.316;-1.348;2023-02-03T17:03:30;2.20;;;0.70;;
4686;SDS011;2357;47.316;-1.348;2023-02-03T17:06:00;4.10;;;0.90;;
4686;SDS011;2357;47.316;-1.348;2023-02-03T17:08:28;3.53;;;0.60;;
4686;SDS011;2357;47.316;-1.348;2023-02-03T17:10:54;2.93;;;0.83;;
4686;SDS011;2357;47.316;-1.348;2023-02-03T17:13:20;0.70;;;0.70;;
4686;SDS011;2357;47.316;-1.348;2023-02-03T17:15:48;1.67;;;1.27;;
4686;SDS011;2357;47.316;-1.348;2023-02-03T17:18:17;3.10;;;0.80;;
4686;SDS011;2357;47.316;-1.348;2023-02-03T17:20:44;1.00;;;0.90;;
4686;SDS011;2357;47.316;-1.348;2023-02-03T17:23:10;2.00;;;1.10;;
4686;SDS011;2357;47.316;-1.348;2023-02-03T17:25:37;0.80;;;0.80;;
4686;SDS011;2357;47.316;-1.348;2023-02-03T17:28:07;2.03;;;0.93;;
4686;SDS011;2357;47.316;-1.348;2023-02-03T17:30:33;1.53;;;0.80;;
4686;SDS011;2357;47.316;-1.348;2023-02-03T17:33:03;1.73;;;0.80;;
4686;SDS011;2357;47.316;-1.348;2023-02-03T17:35:40;3.90;;;1.60;;
4686;SDS011;2357;47.316;-1.348;2023-02-03T17:38:07;4.43;;;1.33;;
4686;SDS011;2357;47.316;-1.348;2023-02-03T17:40:33;4.20;;;1.87;;
4686;SDS011;2357;47.316;-1.348;2023-02-03T17:43:02;3.63;;;1.70;;
4686;SDS011;2357;47.316;-1.348;2023-02-03T17:45:28;5.27;;;1.70;;
4686;SDS011;2357;47.316;-1.348;2023-02-03T17:47:54;1.83;;;1.47;;
4686;SDS011;2357;47.316;-1.348;2023-02-03T17:50:20;1.50;;;1.33;;
4686;SDS011;2357;47.316;-1.348;2023-02-03T17:52:46;3.80;;;1.87;;
4686;SDS011;2357;47.316;-1.348;2023-02-03T17:55:12;2.40;;;1.60;;
4686;SDS011;2357;47.316;-1.348;2023-02-03T17:57:38;4.30;;;2.20;;
4686;SDS011;2357;47.316;-1.348;2023-02-03T18:00:04;3.30;;;2.00;;
4686;SDS011;2357;47.316;-1.348;2023-02-03T18:02:30;5.53;;;1.53;;
4686;SDS011;2357;47.316;-1.348;2023-02-03T18:04:56;3.73;;;2.13;;
4686;SDS011;2357;47.316;-1.348;2023-02-03T18:07:22;5.80;;;1.40;;
4686;SDS011;2357;47.316;-1.348;2023-02-03T18:09:47;2.97;;;1.63;;
4686;SDS011;2357;47.316;-1.348;2023-02-03T18:12:13;4.77;;;2.23;;
4686;SDS011;2357;47.316;-1.348;2023-02-03T18:14:39;3.07;;;1.77;;